sensor_id;sensor_type;location;lat;lon;timestamp;pressure;altitude;pressure_sealevel;temperature;humidity
5966;BME280;3009;43.224;27.976;2024-01-30T00:02:25;102582.41;;;0.78;100.00
5966;BME280;3009;43.224;27.976;2024-01-30T00:04:53;102575.47;;;0.77;100.00
5966;BME280;3009;43.224;27.976;2024-01-30T00:07:22;102561.47;;;0.76;100.00
5966;BME280;3009;43.224;27.976;2024-01-30T00:09:50;102569.38;;;0.76;100.00
5966;BME280;3009;43.224;27.976;2024-01-30T00:12:20;102555.38;;;0.76;100.00
5966;BME280;3009;43.224;27.976;2024-01-30T00:14:49;102571.03;;;0.77;100.00
5966;BME280;3009;43.224;27.976;2024-01-30T00:17:21;102566.56;;;0.78;100.00
5966;BME280;3009;43.224;27.976;2024-01-30T00:19:49;102559.63;;;0.77;100.00
5966;BME280;3009;43.224;27.976;2024-01-30T00:22:18;102563.50;;;0.74;100.00
5966;BME280;3009;43.224;27.976;2024-01-30T00:24:46;102559.22;;;0.73;100.00
5966;BME280;3009;43.224;27.976;2024-01-30T00:27:14;102553.13;;;0.73;100.00
5966;BME280;3009;43.224;27.976;2024-01-30T00:29:44;102557.56;;;0.72;100.00
5966;BME280;3009;43.224;27.976;2024-01-30T00:32:13;102557.19;;;0.75;100.00
5966;BME280;3009;43.224;27.976;2024-01-30T00:34:41;102551.09;;;0.75;100.00
5966;BME280;3009;43.224;27.976;2024-01-30T00:37:10;102570.19;;;0.77;100.00
5966;BME280;3009;43.224;27.976;2024-01-30T00:39:39;102587.63;;;0.71;100.00
5966;BME280;3009;43.224;27.976;2024-01-30T00:42:07;102561.22;;;0.71;100.00
5966;BME280;3009;43.224;27.976;2024-01-30T00:44:35;102569.16;;;0.71;100.00
5966;BME280;3009;43.224;27.976;2024-01-30T00:47:07;102569.97;;;0.72;100.00
5966;BME280;3009;43.224;27.976;2024-01-30T00:49:35;102580.25;;;0.66;100.00
5966;BME280;3009;43.224;27.976;2024-01-30T00:52:04;102559.59;;;0.70;100.00
5966;BME280;3009;43.224;27.976;2024-01-30T00:54:33;102568.97;;;0.73;100.00
5966;BME280;3009;43.224;27.976;2024-01-30T00:57:01;102576.69;;;0.74;100.00
5966;BME280;3009;43.224;27.976;2024-01-30T00:59:29;102555.75;;;0.73;100.00
5966;BME280;3009;43.224;27.976;2024-01-30T01:01:58;102554.72;;;0.74;100.00
5966;BME280;3009;43.224;27.976;2024-01-30T01:04:28;102562.84;;;0.72;100.00
5966;BME280;3009;43.224;27.976;2024-01-30T01:06:56;102555.56;;;0.74;100.00
5966;BME280;3009;43.224;27.976;2024-01-30T01:09:25;102554.72;;;0.74;100.00
5966;BME280;3009;43.224;27.976;2024-01-30T01:11:53;102574.44;;;0.71;100.00
5966;BME280;3009;43.224;27.976;2024-01-30T01:14:22;102551.66;;;0.70;100.00
5966;BME280;3009;43.224;27.976;2024-01-30T01:16:50;102562.03;;;0.72;100.00
5966;BME280;3009;43.224;27.976;2024-01-30T01:19:19;102563.03;;;0.70;100.00
5966;BME280;3009;43.224;27.976;2024-01-30T01:21:49;102542.94;;;0.69;100.00
5966;BME280;3009;43.224;27.976;2024-01-30T01:24:18;102560.56;;;0.69;100.00
5966;BME280;3009;43.224;27.976;2024-01-30T01:26:46;102525.88;;;0.72;100.00
5966;BME280;3009;43.224;27.976;2024-01-30T01:29:14;102526.53;;;0.74;100.00
5966;BME280;3009;43.224;27.976;2024-01-30T01:31:43;102538.69;;;0.75;100.00
5966;BME280;3009;43.224;27.976;2024-01-30T01:34:13;102547.47;;;0.76;100.00
5966;BME280;3009;43.224;27.976;2024-01-30T01:36:41;102557.56;;;0.72;100.00
5966;BME280;3009;43.224;27.976;2024-01-30T01:39:11;102550.66;;;0.71;100.00
5966;BME280;3009;43.224;27.976;2024-01-30T01:41:40;102545.56;;;0.69;100.00
5966;BME280;3009;43.224;27.976;2024-01-30T01:44:08;102553.94;;;0.73;100.00
5966;BME280;3009;43.224;27.976;2024-01-30T01:46:37;102539.06;;;0.72;100.00
5966;BME280;3009;43.224;27.976;2024-01-30T01:49:05;102556.75;;;0.72;100.00
5966;BME280;3009;43.224;27.976;2024-01-30T01:51:36;102547.84;;;0.73;100.00
5966;BME280;3009;43.224;27.976;2024-01-30T01:54:05;102552.47;;;0.70;100.00
5966;BME280;3009;43.224;27.976;2024-01-30T01:56:35;102553.50;;;0.69;100.00
5966;BME280;3009;43.224;27.976;2024-01-30T01:59:05;102558.31;;;0.66;100.00
5966;BME280;3009;43.224;27.976;2024-01-30T02:01:36;102550.00;;;0.69;100.00
5966;BME280;3009;43.224;27.976;2024-01-30T02:04:05;102548.22;;;0.69;100.00
5966;BME280;3009;43.224;27.976;2024-01-30T02:06:34;102552.28;;;0.72;100.00
5966;BME280;3009;43.224;27.976;2024-01-30T02:09:02;102552.28;;;0.72;100.00
5966;BME280;3009;43.224;27.976;2024-01-30T02:11:31;102552.66;;;0.69;100.00
5966;BME280;3009;43.224;27.976;2024-01-30T02:14:04;102561.75;;;0.66;100.00
5966;BME280;3009;43.224;27.976;2024-01-30T02:16:33;102555.66;;;0.66;100.00
5966;BME280;3009;43.224;27.976;2024-01-30T02:19:01;102573.97;;;0.67;100.00
5966;BME280;3009;43.224;27.976;2024-01-30T02:21:32;102565.84;;;0.69;100.00
5966;BME280;3009;43.224;27.976;2024-01-30T02:24:01;102557.94;;;0.69;100.00
5966;BME280;3009;43.224;27.976;2024-01-30T02:26:31;102565.28;;;0.74;100.00
5966;BME280;3009;43.224;27.976;2024-01-30T02:28:59;102560.47;;;0.77;100.00
5966;BME280;3009;43.224;27.976;2024-01-30T02:31:27;102572.03;;;0.76;100.00
5966;BME280;3009;43.224;27.976;2024-01-30T02:33:56;102568.59;;;0.76;100.00
5966;BME280;3009;43.224;27.976;2024-01-30T02:36:24;102565.66;;;0.70;100.00
5966;BME280;3009;43.224;27.976;2024-01-30T02:38:54;102575.63;;;0.68;100.00
5966;BME280;3009;43.224;27.976;2024-01-30T02:41:22;102558.69;;;0.63;100.00
5966;BME280;3009;43.224;27.976;2024-01-30T02:43:51;102563.44;;;0.52;100.00
5966;BME280;3009;43.224;27.976;2024-01-30T02:46:19;102577.84;;;0.50;100.00
5966;BME280;3009;43.224;27.976;2024-01-30T02:48:47;102573.56;;;0.49;100.00
5966;BME280;3009;43.224;27.976;2024-01-30T02:51:16;102564.84;;;0.48;100.00
5966;BME280;3009;43.224;27.976;2024-01-30T02:53:45;102557.72;;;0.49;100.00
5966;BME280;3009;43.224;27.976;2024-01-30T02:56:14;102565.47;;;0.50;100.00
5966;BME280;3009;43.224;27.976;2024-01-30T02:58:43;102558.16;;;0.52;100.00
5966;BME280;3009;43.224;27.976;2024-01-30T03:01:11;102565.91;;;0.54;100.00
5966;BME280;3009;43.224;27.976;2024-01-30T03:03:40;102560.44;;;0.56;100.00
5966;BME280;3009;43.224;27.976;2024-01-30T03:06:10;102578.53;;;0.59;100.00
5966;BME280;3009;43.224;27.976;2024-01-30T03:08:39;102546.06;;;0.58;100.00
5966;BME280;3009;43.224;27.976;2024-01-30T03:11:07;102556.59;;;0.58;100.00
5966;BME280;3009;43.224;27.976;2024-01-30T03:13:37;102560.19;;;0.50;100.00
5966;BME280;3009;43.224;27.976;2024-01-30T03:16:06;102549.63;;;0.50;100.00
5966;BME280;3009;43.224;27.976;2024-01-30T03:18:36;102548.81;;;0.50;100.00
5966;BME280;3009;43.224;27.976;2024-01-30T03:21:05;102562.63;;;0.52;100.00
5966;BME280;3009;43.224;27.976;2024-01-30T03:23:33;102560.81;;;0.52;100.00
5966;BME280;3009;43.224;27.976;2024-01-30T03:26:02;102571.75;;;0.49;100.00
5966;BME280;3009;43.224;27.976;2024-01-30T03:28:33;102574.56;;;0.48;100.00
5966;BME280;3009;43.224;27.976;2024-01-30T03:31:03;102567.81;;;0.45;100.00
5966;BME280;3009;43.224;27.976;2024-01-30T03:33:32;102563.19;;;0.47;100.00
5966;BME280;3009;43.224;27.976;2024-01-30T03:36:03;102569.84;;;0.43;100.00
5966;BME280;3009;43.224;27.976;2024-01-30T03:38:32;102570.13;;;0.48;100.00
5966;BME280;3009;43.224;27.976;2024-01-30T03:41:00;102558.53;;;0.49;100.00
5966;BME280;3009;43.224;27.976;2024-01-30T03:43:29;102561.84;;;0.51;100.00
5966;BME280;3009;43.224;27.976;2024-01-30T03:45:57;102546.25;;;0.57;100.00
5966;BME280;3009;43.224;27.976;2024-01-30T03:48:27;102538.50;;;0.55;100.00
5966;BME280;3009;43.224;27.976;2024-01-30T03:50:56;102532.22;;;0.56;100.00
5966;BME280;3009;43.224;27.976;2024-01-30T03:53:24;102552.88;;;0.52;100.00
5966;BME280;3009;43.224;27.976;2024-01-30T03:55:52;102551.72;;;0.55;100.00
5966;BME280;3009;43.224;27.976;2024-01-30T03:58:21;102558.44;;;0.58;100.00
5966;BME280;3009;43.224;27.976;2024-01-30T04:00:49;102556.59;;;0.58;100.00
5966;BME280;3009;43.224;27.976;2024-01-30T04:03:18;102552.31;;;0.57;100.00
5966;BME280;3009;43.224;27.976;2024-01-30T04:05:54;102552.13;;;0.59;100.00
5966;BME280;3009;43.224;27.976;2024-01-30T04:08:23;102554.22;;;0.63;100.00
5966;BME280;3009;43.224;27.976;2024-01-30T04:10:51;102569.44;;;0.61;100.00
5966;BME280;3009;43.224;27.976;2024-01-30T04:13:19;102553.78;;;0.60;100.00
5966;BME280;3009;43.224;27.976;2024-01-30T04:15:48;102546.47;;;0.62;100.00
5966;BME280;3009;43.224;27.976;2024-01-30T04:18:17;102542.03;;;0.62;100.00
5966;BME280;3009;43.224;27.976;2024-01-30T04:20:45;102537.94;;;0.60;100.00
5966;BME280;3009;43.224;27.976;2024-01-30T04:23:15;102556.44;;;0.60;100.00
5966;BME280;3009;43.224;27.976;2024-01-30T04:25:43;102547.31;;;0.62;100.00
5966;BME280;3009;43.224;27.976;2024-01-30T04:28:30;102560.72;;;0.61;100.00
5966;BME280;3009;43.224;27.976;2024-01-30T04:30:59;102570.91;;;0.64;100.00
5966;BME280;3009;43.224;27.976;2024-01-30T04:33:27;102567.22;;;0.65;100.00
5966;BME280;3009;43.224;27.976;2024-01-30T04:35:55;102570.25;;;0.62;100.00
5966;BME280;3009;43.224;27.976;2024-01-30T04:38:25;102576.59;;;0.67;100.00
5966;BME280;3009;43.224;27.976;2024-01-30T04:40:54;102571.78;;;0.71;100.00
5966;BME280;3009;43.224;27.976;2024-01-30T04:43:22;102579.06;;;0.69;100.00
5966;BME280;3009;43.224;27.976;2024-01-30T04:45:51;102579.72;;;0.71;100.00
5966;BME280;3009;43.224;27.976;2024-01-30T04:48:19;102587.63;;;0.71;100.00
5966;BME280;3009;43.224;27.976;2024-01-30T04:50:48;102577.41;;;0.68;100.00
5966;BME280;3009;43.224;27.976;2024-01-30T04:53:16;102558.94;;;0.68;100.00
5966;BME280;3009;43.224;27.976;2024-01-30T04:55:46;102561.41;;;0.69;100.00
5966;BME280;3009;43.224;27.976;2024-01-30T04:58:16;102560.75;;;0.67;100.00
5966;BME280;3009;43.224;27.976;2024-01-30T05:00:44;102552.03;;;0.67;100.00
5966;BME280;3009;43.224;27.976;2024-01-30T05:03:19;102530.53;;;0.70;100.00
5966;BME280;3009;43.224;27.976;2024-01-30T05:05:49;102542.94;;;0.69;100.00
5966;BME280;3009;43.224;27.976;2024-01-30T05:08:18;102560.94;;;0.66;100.00
5966;BME280;3009;43.224;27.976;2024-01-30T05:10:47;102551.56;;;0.63;100.00
5966;BME280;3009;43.224;27.976;2024-01-30T05:13:16;102563.16;;;0.62;100.00
5966;BME280;3009;43.224;27.976;2024-01-30T05:15:44;102549.97;;;0.62;100.00
5966;BME280;3009;43.224;27.976;2024-01-30T05:18:13;102553.41;;;0.63;100.00
5966;BME280;3009;43.224;27.976;2024-01-30T05:20:42;102541.09;;;0.70;100.00
5966;BME280;3009;43.224;27.976;2024-01-30T05:23:10;102551.66;;;0.70;100.00
5966;BME280;3009;43.224;27.976;2024-01-30T05:25:38;102579.16;;;0.76;100.00
5966;BME280;3009;43.224;27.976;2024-01-30T05:28:08;102550.91;;;0.76;100.00
5966;BME280;3009;43.224;27.976;2024-01-30T05:30:37;102552.78;;;0.82;100.00
5966;BME280;3009;43.224;27.976;2024-01-30T05:33:05;102566.81;;;0.83;100.00
5966;BME280;3009;43.224;27.976;2024-01-30T05:35:34;102571.91;;;0.84;100.00
5966;BME280;3009;43.224;27.976;2024-01-30T05:38:02;102560.53;;;0.84;100.00
5966;BME280;3009;43.224;27.976;2024-01-30T05:40:31;102561.53;;;0.83;100.00
5966;BME280;3009;43.224;27.976;2024-01-30T05:42:59;102579.19;;;0.82;100.00
5966;BME280;3009;43.224;27.976;2024-01-30T05:45:31;102572.91;;;0.83;100.00
5966;BME280;3009;43.224;27.976;2024-01-30T05:47:59;102581.84;;;0.82;100.00
5966;BME280;3009;43.224;27.976;2024-01-30T05:50:28;102573.91;;;0.82;100.00
5966;BME280;3009;43.224;27.976;2024-01-30T05:52:56;102583.47;;;0.83;100.00
5966;BME280;3009;43.224;27.976;2024-01-30T05:55:25;102583.31;;;0.85;100.00
5966;BME280;3009;43.224;27.976;2024-01-30T05:57:53;102572.53;;;0.86;100.00
5966;BME280;3009;43.224;27.976;2024-01-30T06:00:22;102578.63;;;0.87;100.00
5966;BME280;3009;43.224;27.976;2024-01-30T06:02:52;102594.75;;;0.92;100.00
5966;BME280;3009;43.224;27.976;2024-01-30T06:05:20;102592.28;;;0.91;100.00
5966;BME280;3009;43.224;27.976;2024-01-30T06:07:49;102606.13;;;0.93;100.00
5966;BME280;3009;43.224;27.976;2024-01-30T06:10:17;102625.88;;;0.97;100.00
5966;BME280;3009;43.224;27.976;2024-01-30T06:12:46;102623.06;;;0.98;100.00
5966;BME280;3009;43.224;27.976;2024-01-30T06:15:15;102652.50;;;0.95;100.00
5966;BME280;3009;43.224;27.976;2024-01-30T06:17:43;102647.63;;;0.99;100.00
5966;BME280;3009;43.224;27.976;2024-01-30T06:20:14;102638.72;;;1.00;100.00
5966;BME280;3009;43.224;27.976;2024-01-30T06:22:42;102616.13;;;0.97;100.00
5966;BME280;3009;43.224;27.976;2024-01-30T06:25:10;102650.66;;;0.96;100.00
5966;BME280;3009;43.224;27.976;2024-01-30T06:27:39;102635.81;;;0.95;100.00
5966;BME280;3009;43.224;27.976;2024-01-30T06:30:08;102646.00;;;0.98;100.00
5966;BME280;3009;43.224;27.976;2024-01-30T06:32:36;102622.22;;;0.98;100.00
5966;BME280;3009;43.224;27.976;2024-01-30T06:35:06;102628.97;;;1.00;100.00
5966;BME280;3009;43.224;27.976;2024-01-30T06:37:36;102618.81;;;1.04;100.00
5966;BME280;3009;43.224;27.976;2024-01-30T06:40:06;102611.66;;;0.98;100.00
5966;BME280;3009;43.224;27.976;2024-01-30T06:42:35;102624.66;;;0.99;100.00
5966;BME280;3009;43.224;27.976;2024-01-30T06:45:04;102663.31;;;1.00;100.00
5966;BME280;3009;43.224;27.976;2024-01-30T06:47:33;102641.72;;;0.97;100.00
5966;BME280;3009;43.224;27.976;2024-01-30T06:50:01;102641.34;;;1.00;100.00
5966;BME280;3009;43.224;27.976;2024-01-30T06:52:30;102627.97;;;1.01;100.00
5966;BME280;3009;43.224;27.976;2024-01-30T06:55:00;102628.97;;;1.00;100.00
5966;BME280;3009;43.224;27.976;2024-01-30T06:57:29;102623.47;;;1.02;100.00
5966;BME280;3009;43.224;27.976;2024-01-30T06:59:57;102634.66;;;1.04;100.00
5966;BME280;3009;43.224;27.976;2024-01-30T07:02:25;102658.81;;;1.01;100.00
5966;BME280;3009;43.224;27.976;2024-01-30T07:04:54;102644.63;;;1.02;100.00
5966;BME280;3009;43.224;27.976;2024-01-30T07:07:22;102648.00;;;0.96;100.00
5966;BME280;3009;43.224;27.976;2024-01-30T07:09:51;102644.66;;;0.87;100.00
5966;BME280;3009;43.224;27.976;2024-01-30T07:12:25;102643.41;;;0.83;100.00
5966;BME280;3009;43.224;27.976;2024-01-30T07:14:53;102654.97;;;0.82;100.00
5966;BME280;3009;43.224;27.976;2024-01-30T07:17:23;102654.03;;;0.90;100.00
5966;BME280;3009;43.224;27.976;2024-01-30T07:19:51;102647.22;;;0.95;100.00
5966;BME280;3009;43.224;27.976;2024-01-30T07:22:20;102658.19;;;0.99;100.00
5966;BME280;3009;43.224;27.976;2024-01-30T07:24:49;102644.88;;;1.07;100.00
5966;BME280;3009;43.224;27.976;2024-01-30T07:27:19;102643.50;;;1.11;100.00
5966;BME280;3009;43.224;27.976;2024-01-30T07:29:50;102634.44;;;1.20;100.00
5966;BME280;3009;43.224;27.976;2024-01-30T07:32:18;102635.94;;;1.30;100.00
5966;BME280;3009;43.224;27.976;2024-01-30T07:34:46;102634.53;;;1.34;100.00
5966;BME280;3009;43.224;27.976;2024-01-30T07:37:32;102652.88;;;1.35;100.00
5966;BME280;3009;43.224;27.976;2024-01-30T07:40:02;102635.44;;;1.41;100.00
5966;BME280;3009;43.224;27.976;2024-01-30T07:42:31;102636.88;;;1.44;100.00
5966;BME280;3009;43.224;27.976;2024-01-30T07:45:01;102653.28;;;1.61;100.00
5966;BME280;3009;43.224;27.976;2024-01-30T07:47:30;102637.13;;;1.77;100.00
5966;BME280;3009;43.224;27.976;2024-01-30T07:49:58;102639.47;;;1.93;100.00
5966;BME280;3009;43.224;27.976;2024-01-30T07:52:27;102663.88;;;1.89;100.00
5966;BME280;3009;43.224;27.976;2024-01-30T07:54:55;102648.44;;;1.92;100.00
5966;BME280;3009;43.224;27.976;2024-01-30T07:57:24;102626.44;;;1.92;100.00
5966;BME280;3009;43.224;27.976;2024-01-30T07:59:52;102630.09;;;1.91;100.00
5966;BME280;3009;43.224;27.976;2024-01-30T08:02:22;102634.38;;;1.92;100.00
5966;BME280;3009;43.224;27.976;2024-01-30T08:04:51;102624.06;;;2.04;100.00
5966;BME280;3009;43.224;27.976;2024-01-30T08:07:19;102645.88;;;2.12;100.00
5966;BME280;3009;43.224;27.976;2024-01-30T08:09:49;102616.03;;;2.25;100.00
5966;BME280;3009;43.224;27.976;2024-01-30T08:12:18;102634.19;;;2.28;100.00
5966;BME280;3009;43.224;27.976;2024-01-30T08:14:46;102619.44;;;2.12;100.00
5966;BME280;3009;43.224;27.976;2024-01-30T08:17:14;102665.66;;;2.17;100.00
5966;BME280;3009;43.224;27.976;2024-01-30T08:19:44;102631.63;;;2.07;100.00
5966;BME280;3009;43.224;27.976;2024-01-30T08:22:13;102625.38;;;2.21;100.00
5966;BME280;3009;43.224;27.976;2024-01-30T08:24:41;102631.16;;;2.38;100.00
5966;BME280;3009;43.224;27.976;2024-01-30T08:27:10;102630.69;;;2.28;100.00
5966;BME280;3009;43.224;27.976;2024-01-30T08:29:39;102638.78;;;2.13;100.00
5966;BME280;3009;43.224;27.976;2024-01-30T08:32:07;102629.22;;;2.12;100.00
5966;BME280;3009;43.224;27.976;2024-01-30T08:34:36;102645.69;;;2.14;100.00
5966;BME280;3009;43.224;27.976;2024-01-30T08:37:05;102640.56;;;2.06;100.00
5966;BME280;3009;43.224;27.976;2024-01-30T08:39:34;102637.88;;;1.99;100.00
5966;BME280;3009;43.224;27.976;2024-01-30T08:42:03;102656.59;;;1.98;100.00
5966;BME280;3009;43.224;27.976;2024-01-30T08:44:31;102627.94;;;2.01;100.00
5966;BME280;3009;43.224;27.976;2024-01-30T08:47:00;102645.63;;;2.01;100.00
5966;BME280;3009;43.224;27.976;2024-01-30T08:49:28;102637.53;;;2.09;100.00
5966;BME280;3009;43.224;27.976;2024-01-30T08:51:57;102641.47;;;2.26;100.00
5966;BME280;3009;43.224;27.976;2024-01-30T08:54:26;102643.38;;;2.33;100.00
5966;BME280;3009;43.224;27.976;2024-01-30T08:56:55;102639.06;;;2.32;100.00
5966;BME280;3009;43.224;27.976;2024-01-30T08:59:25;102653.97;;;2.33;100.00
5966;BME280;3009;43.224;27.976;2024-01-30T09:01:53;102657.81;;;2.30;100.00
5966;BME280;3009;43.224;27.976;2024-01-30T09:04:37;102646.84;;;2.40;100.00
5966;BME280;3009;43.224;27.976;2024-01-30T09:07:07;102676.28;;;2.58;100.00
5966;BME280;3009;43.224;27.976;2024-01-30T09:09:39;102689.13;;;2.68;100.00
5966;BME280;3009;43.224;27.976;2024-01-30T09:12:08;102639.44;;;2.77;100.00
5966;BME280;3009;43.224;27.976;2024-01-30T09:14:39;102638.66;;;2.83;100.00
5966;BME280;3009;43.224;27.976;2024-01-30T09:17:08;102634.19;;;2.90;100.00
5966;BME280;3009;43.224;27.976;2024-01-30T09:19:37;102650.28;;;2.89;100.00
5966;BME280;3009;43.224;27.976;2024-01-30T09:22:06;102635.59;;;2.86;100.00
5966;BME280;3009;43.224;27.976;2024-01-30T09:24:35;102637.66;;;2.91;100.00
5966;BME280;3009;43.224;27.976;2024-01-30T09:27:06;102648.44;;;2.89;100.00
5966;BME280;3009;43.224;27.976;2024-01-30T09:29:34;102634.19;;;2.90;100.00
5966;BME280;3009;43.224;27.976;2024-01-30T09:32:04;102634.63;;;3.07;100.00
5966;BME280;3009;43.224;27.976;2024-01-30T09:34:33;102651.16;;;3.16;100.00
5966;BME280;3009;43.224;27.976;2024-01-30T09:37:04;102650.53;;;3.14;100.00
5966;BME280;3009;43.224;27.976;2024-01-30T09:39:32;102627.09;;;3.04;100.00
5966;BME280;3009;43.224;27.976;2024-01-30T09:42:04;102618.31;;;3.04;100.00
5966;BME280;3009;43.224;27.976;2024-01-30T09:44:35;102628.50;;;3.00;100.00
5966;BME280;3009;43.224;27.976;2024-01-30T09:47:04;102635.03;;;3.11;100.00
5966;BME280;3009;43.224;27.976;2024-01-30T09:49:33;102621.97;;;3.09;100.00
5966;BME280;3009;43.224;27.976;2024-01-30T09:52:04;102622.81;;;3.10;100.00
5966;BME280;3009;43.224;27.976;2024-01-30T09:54:34;102616.28;;;3.06;100.00
5966;BME280;3009;43.224;27.976;2024-01-30T09:57:03;102629.31;;;3.14;100.00
5966;BME280;3009;43.224;27.976;2024-01-30T09:59:34;102608.13;;;3.07;100.00
5966;BME280;3009;43.224;27.976;2024-01-30T10:02:02;102629.53;;;2.99;100.00
5966;BME280;3009;43.224;27.976;2024-01-30T10:04:31;102617.09;;;2.99;100.00
5966;BME280;3009;43.224;27.976;2024-01-30T10:07:01;102618.94;;;3.06;100.00
5966;BME280;3009;43.224;27.976;2024-01-30T10:09:32;102607.72;;;3.17;100.00
5966;BME280;3009;43.224;27.976;2024-01-30T10:12:02;102609.56;;;3.23;100.00
5966;BME280;3009;43.224;27.976;2024-01-30T10:14:31;102605.28;;;3.22;100.00
5966;BME280;3009;43.224;27.976;2024-01-30T10:17:03;102598.13;;;3.23;100.00
5966;BME280;3009;43.224;27.976;2024-01-30T10:19:43;102649.94;;;3.25;100.00
5966;BME280;3009;43.224;27.976;2024-01-30T10:22:12;102616.91;;;3.21;100.00
5966;BME280;3009;43.224;27.976;2024-01-30T10:24:40;102606.72;;;3.25;100.00
5966;BME280;3009;43.224;27.976;2024-01-30T10:27:09;102602.44;;;3.37;100.00
5966;BME280;3009;43.224;27.976;2024-01-30T10:29:38;102622.22;;;3.28;100.00
5966;BME280;3009;43.224;27.976;2024-01-30T10:32:08;102602.03;;;3.27;100.00
5966;BME280;3009;43.224;27.976;2024-01-30T10:34:36;102599.97;;;3.49;100.00
5966;BME280;3009;43.224;27.976;2024-01-30T10:37:07;102593.84;;;3.62;100.00
5966;BME280;3009;43.224;27.976;2024-01-30T10:39:40;102591.00;;;3.57;100.00
5966;BME280;3009;43.224;27.976;2024-01-30T10:42:11;102607.31;;;3.60;100.00
5966;BME280;3009;43.224;27.976;2024-01-30T10:44:46;102584.84;;;3.56;100.00
5966;BME280;3009;43.224;27.976;2024-01-30T10:47:26;102587.34;;;3.44;100.00
5966;BME280;3009;43.224;27.976;2024-01-30T10:49:56;102591.41;;;3.47;100.00
5966;BME280;3009;43.224;27.976;2024-01-30T10:52:25;102576.91;;;3.49;100.00
5966;BME280;3009;43.224;27.976;2024-01-30T10:54:55;102593.03;;;3.48;100.00
5966;BME280;3009;43.224;27.976;2024-01-30T10:57:27;102569.75;;;3.50;100.00
5966;BME280;3009;43.224;27.976;2024-01-30T10:59:57;102566.28;;;3.56;100.00
5966;BME280;3009;43.224;27.976;2024-01-30T11:02:28;102567.69;;;3.65;100.00
5966;BME280;3009;43.224;27.976;2024-01-30T11:04:58;102568.72;;;3.71;100.00
5966;BME280;3009;43.224;27.976;2024-01-30T11:07:28;102578.31;;;3.65;100.00
5966;BME280;3009;43.224;27.976;2024-01-30T11:10:00;102584.84;;;3.69;100.00
5966;BME280;3009;43.224;27.976;2024-01-30T11:12:31;102560.75;;;3.71;100.00
5966;BME280;3009;43.224;27.976;2024-01-30T11:15:06;102579.75;;;3.75;100.00
5966;BME280;3009;43.224;27.976;2024-01-30T11:17:44;102574.03;;;3.78;100.00
5966;BME280;3009;43.224;27.976;2024-01-30T11:20:15;102570.53;;;3.77;100.00
5966;BME280;3009;43.224;27.976;2024-01-30T11:22:46;102582.59;;;3.73;100.00
5966;BME280;3009;43.224;27.976;2024-01-30T11:25:15;102557.06;;;3.85;100.00
5966;BME280;3009;43.224;27.976;2024-01-30T11:27:45;102562.16;;;3.80;100.00
5966;BME280;3009;43.224;27.976;2024-01-30T11:30:21;102595.25;;;3.78;99.44
5966;BME280;3009;43.224;27.976;2024-01-30T11:33:14;102551.97;;;3.64;97.58
5966;BME280;3009;43.224;27.976;2024-01-30T11:35:44;102537.72;;;3.71;97.56
5966;BME280;3009;43.224;27.976;2024-01-30T11:38:14;102545.63;;;3.78;96.97
5966;BME280;3009;43.224;27.976;2024-01-30T11:40:43;102555.88;;;3.75;96.76
5966;BME280;3009;43.224;27.976;2024-01-30T11:43:12;102536.25;;;3.76;96.53
5966;BME280;3009;43.224;27.976;2024-01-30T11:45:40;102552.16;;;3.76;96.32
5966;BME280;3009;43.224;27.976;2024-01-30T11:48:13;102544.84;;;3.78;95.82
5966;BME280;3009;43.224;27.976;2024-01-30T11:50:41;102548.50;;;3.77;95.85
5966;BME280;3009;43.224;27.976;2024-01-30T11:53:11;102539.69;;;3.83;96.76
5966;BME280;3009;43.224;27.976;2024-01-30T11:55:40;102543.75;;;3.92;97.60
5966;BME280;3009;43.224;27.976;2024-01-30T11:58:08;102542.38;;;3.76;98.27
5966;BME280;3009;43.224;27.976;2024-01-30T12:00:37;102551.16;;;3.77;98.56
5966;BME280;3009;43.224;27.976;2024-01-30T12:03:05;102560.16;;;3.62;98.74
5966;BME280;3009;43.224;27.976;2024-01-30T12:05:35;102538.69;;;3.77;98.76
5966;BME280;3009;43.224;27.976;2024-01-30T12:08:15;102545.25;;;3.75;97.70
5966;BME280;3009;43.224;27.976;2024-01-30T12:10:43;102544.44;;;3.67;96.84
5966;BME280;3009;43.224;27.976;2024-01-30T12:13:12;102543.81;;;3.65;97.52
5966;BME280;3009;43.224;27.976;2024-01-30T12:15:42;102538.50;;;3.65;98.36
5966;BME280;3009;43.224;27.976;2024-01-30T12:18:10;102545.25;;;3.75;98.78
5966;BME280;3009;43.224;27.976;2024-01-30T12:20:40;102543.78;;;3.79;98.81
5966;BME280;3009;43.224;27.976;2024-01-30T12:23:09;102551.31;;;3.82;98.70
5966;BME280;3009;43.224;27.976;2024-01-30T12:25:40;102548.03;;;3.86;97.68
5966;BME280;3009;43.224;27.976;2024-01-30T12:28:10;102541.50;;;3.89;97.15
5966;BME280;3009;43.224;27.976;2024-01-30T12:30:39;102547.59;;;4.03;96.56
5966;BME280;3009;43.224;27.976;2024-01-30T12:33:07;102549.00;;;4.05;96.93
5966;BME280;3009;43.224;27.976;2024-01-30T12:35:37;102543.13;;;4.03;97.73
5966;BME280;3009;43.224;27.976;2024-01-30T12:38:19;102542.66;;;4.13;97.69
5966;BME280;3009;43.224;27.976;2024-01-30T12:40:48;102532.25;;;4.12;93.15
5966;BME280;3009;43.224;27.976;2024-01-30T12:43:16;102534.50;;;4.08;91.94
5966;BME280;3009;43.224;27.976;2024-01-30T12:45:58;102547.44;;;3.91;89.88
5966;BME280;3009;43.224;27.976;2024-01-30T12:48:28;102520.06;;;3.97;89.90
5966;BME280;3009;43.224;27.976;2024-01-30T12:50:57;102529.47;;;3.93;94.40
5966;BME280;3009;43.224;27.976;2024-01-30T12:53:27;102530.69;;;3.90;94.19
5966;BME280;3009;43.224;27.976;2024-01-30T12:55:56;102529.25;;;3.88;91.45
5966;BME280;3009;43.224;27.976;2024-01-30T12:58:25;102541.72;;;3.87;90.22
5966;BME280;3009;43.224;27.976;2024-01-30T13:00:54;102530.91;;;3.89;89.98
5966;BME280;3009;43.224;27.976;2024-01-30T13:03:24;102523.56;;;3.91;89.44
5966;BME280;3009;43.224;27.976;2024-01-30T13:05:52;102539.50;;;3.84;86.54
5966;BME280;3009;43.224;27.976;2024-01-30T13:08:21;102529.88;;;3.83;89.79
5966;BME280;3009;43.224;27.976;2024-01-30T13:10:51;102518.69;;;3.81;91.16
5966;BME280;3009;43.224;27.976;2024-01-30T13:13:20;102510.09;;;3.86;91.81
5966;BME280;3009;43.224;27.976;2024-01-30T13:15:48;102524.78;;;3.88;91.01